sensor_id;sensor_type;location;lat;lon;timestamp;temperature;humidity
41944;DHT22;27636;52.610;13.244;2023-09-18T00:02:34;16.90;99.90
41944;DHT22;27636;52.610;13.244;2023-09-18T00:07:39;16.90;99.90
41944;DHT22;27636;52.610;13.244;2023-09-18T00:12:42;16.90;99.90
41944;DHT22;27636;52.610;13.244;2023-09-18T00:17:46;17.00;99.90
41944;DHT22;27636;52.610;13.244;2023-09-18T00:22:51;17.10;99.90
41944;DHT22;27636;52.610;13.244;2023-09-18T00:27:54;17.20;99.90
41944;DHT22;27636;52.610;13.244;2023-09-18T00:32:57;17.20;99.90
41944;DHT22;27636;52.610;13.244;2023-09-18T00:38:03;17.20;99.90
41944;DHT22;27636;52.610;13.244;2023-09-18T00:43:07;17.00;99.90
41944;DHT22;27636;52.610;13.244;2023-09-18T00:48:14;16.90;99.90
41944;DHT22;27636;52.610;13.244;2023-09-18T00:53:22;16.80;99.90
41944;DHT22;27636;52.610;13.244;2023-09-18T00:58:26;16.80;99.90
41944;DHT22;27636;52.610;13.244;2023-09-18T01:03:30;16.80;99.90
41944;DHT22;27636;52.610;13.244;2023-09-18T01:08:38;16.60;99.90
41944;DHT22;27636;52.610;13.244;2023-09-18T01:13:46;16.50;99.90
41944;DHT22;27636;52.610;13.244;2023-09-18T01:18:52;16.50;99.90
41944;DHT22;27636;52.610;13.244;2023-09-18T01:23:58;16.40;99.90
41944;DHT22;27636;52.610;13.244;2023-09-18T01:29:01;16.40;99.90
41944;DHT22;27636;52.610;13.244;2023-09-18T01:34:06;16.40;99.90
41944;DHT22;27636;52.610;13.244;2023-09-18T01:39:11;16.50;99.90
41944;DHT22;27636;52.610;13.244;2023-09-18T01:44:15;16.40;99.90
41944;DHT22;27636;52.610;13.244;2023-09-18T01:49:26;16.40;99.90
41944;DHT22;27636;52.610;13.244;2023-09-18T01:54:32;16.50;99.90
41944;DHT22;27636;52.610;13.244;2023-09-18T01:59:36;16.30;99.90
41944;DHT22;27636;52.610;13.244;2023-09-18T02:04:40;16.30;99.90
41944;DHT22;27636;52.610;13.244;2023-09-18T02:10:07;16.30;99.90
41944;DHT22;27636;52.610;13.244;2023-09-18T02:15:10;16.30;99.90
41944;DHT22;27636;52.610;13.244;2023-09-18T02:20:14;16.40;99.90
41944;DHT22;27636;52.610;13.244;2023-09-18T02:25:19;16.60;99.90
41944;DHT22;27636;52.610;13.244;2023-09-18T02:30:23;16.50;99.90
41944;DHT22;27636;52.610;13.244;2023-09-18T02:35:29;16.50;99.90
41944;DHT22;27636;52.610;13.244;2023-09-18T02:40:35;16.70;99.90
41944;DHT22;27636;52.610;13.244;2023-09-18T02:45:39;16.70;99.90
41944;DHT22;27636;52.610;13.244;2023-09-18T02:50:44;16.40;99.90
41944;DHT22;27636;52.610;13.244;2023-09-18T02:55:51;16.40;99.90
41944;DHT22;27636;52.610;13.244;2023-09-18T03:00:56;16.20;99.90
41944;DHT22;27636;52.610;13.244;2023-09-18T03:06:02;16.10;99.90
41944;DHT22;27636;52.610;13.244;2023-09-18T03:11:12;16.00;99.90
41944;DHT22;27636;52.610;13.244;2023-09-18T03:16:17;16.00;99.90
41944;DHT22;27636;52.610;13.244;2023-09-18T03:21:22;16.00;99.90
41944;DHT22;27636;52.610;13.244;2023-09-18T03:26:27;15.90;99.90
41944;DHT22;27636;52.610;13.244;2023-09-18T03:31:31;15.80;99.90
41944;DHT22;27636;52.610;13.244;2023-09-18T03:36:35;15.60;99.90
41944;DHT22;27636;52.610;13.244;2023-09-18T03:41:42;15.60;99.90
41944;DHT22;27636;52.610;13.244;2023-09-18T03:46:45;15.70;99.90
41944;DHT22;27636;52.610;13.244;2023-09-18T03:51:49;15.70;99.90
41944;DHT22;27636;52.610;13.244;2023-09-18T03:56:55;15.70;99.90
41944;DHT22;27636;52.610;13.244;2023-09-18T04:01:58;15.60;99.90
41944;DHT22;27636;52.610;13.244;2023-09-18T04:07:06;15.60;99.90
41944;DHT22;27636;52.610;13.244;2023-09-18T04:12:11;15.50;99.90
41944;DHT22;27636;52.610;13.244;2023-09-18T04:17:14;15.50;99.90
41944;DHT22;27636;52.610;13.244;2023-09-18T04:22:18;15.60;99.90
41944;DHT22;27636;52.610;13.244;2023-09-18T04:27:23;15.80;99.90
41944;DHT22;27636;52.610;13.244;2023-09-18T04:32:27;15.70;99.90
41944;DHT22;27636;52.610;13.244;2023-09-18T04:37:35;15.80;99.90
41944;DHT22;27636;52.610;13.244;2023-09-18T04:42:41;15.80;99.90
41944;DHT22;27636;52.610;13.244;2023-09-18T04:47:46;15.80;99.90
41944;DHT22;27636;52.610;13.244;2023-09-18T04:52:50;15.80;99.90
41944;DHT22;27636;52.610;13.244;2023-09-18T04:57:56;15.80;99.90
41944;DHT22;27636;52.610;13.244;2023-09-18T05:03:04;15.80;99.90
41944;DHT22;27636;52.610;13.244;2023-09-18T05:08:08;16.10;99.90
41944;DHT22;27636;52.610;13.244;2023-09-18T05:13:13;16.40;99.90
41944;DHT22;27636;52.610;13.244;2023-09-18T05:18:17;16.50;99.90
41944;DHT22;27636;52.610;13.244;2023-09-18T05:23:21;16.70;99.90
41944;DHT22;27636;52.610;13.244;2023-09-18T05:28:26;16.90;99.90
41944;DHT22;27636;52.610;13.244;2023-09-18T05:33:29;17.10;99.90
41944;DHT22;27636;52.610;13.244;2023-09-18T05:38:33;17.40;99.90
41944;DHT22;27636;52.610;13.244;2023-09-18T05:43:38;17.80;99.90
41944;DHT22;27636;52.610;13.244;2023-09-18T05:48:41;18.20;99.90
41944;DHT22;27636;52.610;13.244;2023-09-18T05:53:45;18.40;99.90
41944;DHT22;27636;52.610;13.244;2023-09-18T05:58:51;18.70;99.90
41944;DHT22;27636;52.610;13.244;2023-09-18T06:03:56;18.90;99.90
41944;DHT22;27636;52.610;13.244;2023-09-18T06:09:00;19.30;99.90
41944;DHT22;27636;52.610;13.244;2023-09-18T06:14:05;19.60;99.90
41944;DHT22;27636;52.610;13.244;2023-09-18T06:19:09;20.30;99.90
41944;DHT22;27636;52.610;13.244;2023-09-18T06:24:13;21.20;99.90
41944;DHT22;27636;52.610;13.244;2023-09-18T06:29:19;21.80;99.90
41944;DHT22;27636;52.610;13.244;2023-09-18T06:34:23;21.70;99.90
41944;DHT22;27636;52.610;13.244;2023-09-18T06:39:27;22.00;99.90
41944;DHT22;27636;52.610;13.244;2023-09-18T06:44:31;22.00;99.90
41944;DHT22;27636;52.610;13.244;2023-09-18T06:49:35;22.40;99.90
41944;DHT22;27636;52.610;13.244;2023-09-18T06:54:38;23.10;99.90
41944;DHT22;27636;52.610;13.244;2023-09-18T06:59:43;23.70;99.90
41944;DHT22;27636;52.610;13.244;2023-09-18T07:04:48;24.30;99.90
41944;DHT22;27636;52.610;13.244;2023-09-18T07:09:52;25.30;99.90
41944;DHT22;27636;52.610;13.244;2023-09-18T07:15:10;26.10;99.20
41944;DHT22;27636;52.610;13.244;2023-09-18T07:20:14;25.60;98.20
41944;DHT22;27636;52.610;13.244;2023-09-18T07:25:18;26.30;96.50
41944;DHT22;27636;52.610;13.244;2023-09-18T07:30:23;26.60;95.30
41944;DHT22;27636;52.610;13.244;2023-09-18T07:35:30;27.10;93.70
41944;DHT22;27636;52.610;13.244;2023-09-18T07:40:34;27.40;92.80
41944;DHT22;27636;52.610;13.244;2023-09-18T07:45:39;27.50;90.90
41944;DHT22;27636;52.610;13.244;2023-09-18T07:50:44;27.60;90.90
41944;DHT22;27636;52.610;13.244;2023-09-18T07:55:55;27.80;90.20
41944;DHT22;27636;52.610;13.244;2023-09-18T08:01:00;27.60;89.20
41944;DHT22;27636;52.610;13.244;2023-09-18T08:06:09;27.40;90.70
41944;DHT22;27636;52.610;13.244;2023-09-18T08:11:14;29.00;85.90
41944;DHT22;27636;52.610;13.244;2023-09-18T08:16:19;29.10;82.30
41944;DHT22;27636;52.610;13.244;2023-09-18T08:21:23;29.10;84.50
41944;DHT22;27636;52.610;13.244;2023-09-18T08:26:27;29.50;81.40
41944;DHT22;27636;52.610;13.244;2023-09-18T08:31:33;29.80;78.30
41944;DHT22;27636;52.610;13.244;2023-09-18T08:36:37;29.70;80.20
41944;DHT22;27636;52.610;13.244;2023-09-18T08:41:42;29.40;79.40
41944;DHT22;27636;52.610;13.244;2023-09-18T08:46:47;30.70;76.40
41944;DHT22;27636;52.610;13.244;2023-09-18T08:51:54;29.70;78.70
41944;DHT22;27636;52.610;13.244;2023-09-18T08:56:58;28.80;80.20
41944;DHT22;27636;52.610;13.244;2023-09-18T09:02:03;28.00;81.20
41944;DHT22;27636;52.610;13.244;2023-09-18T09:07:07;28.30;81.30
41944;DHT22;27636;52.610;13.244;2023-09-18T09:12:10;27.90;83.70
41944;DHT22;27636;52.610;13.244;2023-09-18T09:17:19;28.30;82.80
41944;DHT22;27636;52.610;13.244;2023-09-18T09:22:26;28.00;83.30
41944;DHT22;27636;52.610;13.244;2023-09-18T09:27:42;27.90;85.80
41944;DHT22;27636;52.610;13.244;2023-09-18T09:32:49;28.50;83.10
41944;DHT22;27636;52.610;13.244;2023-09-18T09:37:58;28.30;82.60
41944;DHT22;27636;52.610;13.244;2023-09-18T09:43:04;27.70;85.60
41944;DHT22;27636;52.610;13.244;2023-09-18T09:48:12;28.10;84.20
41944;DHT22;27636;52.610;13.244;2023-09-18T09:53:16;27.80;85.80
41944;DHT22;27636;52.610;13.244;2023-09-18T09:58:26;27.70;85.10
41944;DHT22;27636;52.610;13.244;2023-09-18T10:03:33;27.70;86.80
41944;DHT22;27636;52.610;13.244;2023-09-18T10:08:38;28.00;85.90
41944;DHT22;27636;52.610;13.244;2023-09-18T10:13:46;28.10;84.30
41944;DHT22;27636;52.610;13.244;2023-09-18T10:18:56;28.50;83.60
41944;DHT22;27636;52.610;13.244;2023-09-18T10:24:14;28.80;81.50
41944;DHT22;27636;52.610;13.244;2023-09-18T10:29:22;28.90;79.50
41944;DHT22;27636;52.610;13.244;2023-09-18T10:34:29;29.50;77.30
41944;DHT22;27636;52.610;13.244;2023-09-18T10:39:35;29.50;78.10
41944;DHT22;27636;52.610;13.244;2023-09-18T10:44:41;29.60;76.30
41944;DHT22;27636;52.610;13.244;2023-09-18T10:49:46;30.00;78.50
41944;DHT22;27636;52.610;13.244;2023-09-18T10:54:53;29.20;78.40
41944;DHT22;27636;52.610;13.244;2023-09-18T10:59:58;28.60;81.70
41944;DHT22;27636;52.610;13.244;2023-09-18T11:05:03;28.30;80.90
41944;DHT22;27636;52.610;13.244;2023-09-18T11:10:26;28.00;84.60
41944;DHT22;27636;52.610;13.244;2023-09-18T11:15:31;28.00;85.10
41944;DHT22;27636;52.610;13.244;2023-09-18T11:20:39;27.50;83.60
41944;DHT22;27636;52.610;13.244;2023-09-18T11:25:43;27.30;85.90
41944;DHT22;27636;52.610;13.244;2023-09-18T11:30:51;27.20;85.50
41944;DHT22;27636;52.610;13.244;2023-09-18T11:36:07;27.10;86.30
41944;DHT22;27636;52.610;13.244;2023-09-18T11:41:32;27.00;86.00
41944;DHT22;27636;52.610;13.244;2023-09-18T11:46:38;26.60;88.20
41944;DHT22;27636;52.610;13.244;2023-09-18T11:51:44;26.70;90.50
41944;DHT22;27636;52.610;13.244;2023-09-18T11:56:49;26.60;88.90
41944;DHT22;27636;52.610;13.244;2023-09-18T12:01:53;26.30;90.10
41944;DHT22;27636;52.610;13.244;2023-09-18T12:06:59;25.90;91.20
41944;DHT22;27636;52.610;13.244;2023-09-18T12:12:05;25.90;92.60
41944;DHT22;27636;52.610;13.244;2023-09-18T12:17:14;26.20;91.60
41944;DHT22;27636;52.610;13.244;2023-09-18T12:22:24;27.00;90.30
41944;DHT22;27636;52.610;13.244;2023-09-18T12:27:29;27.10;89.60
41944;DHT22;27636;52.610;13.244;2023-09-18T12:32:36;28.00;88.30
41944;DHT22;27636;52.610;13.244;2023-09-18T12:37:41;28.90;82.60
41944;DHT22;27636;52.610;13.244;2023-09-18T12:42:46;28.30;82.00
41944;DHT22;27636;52.610;13.244;2023-09-18T12:47:50;27.80;86.10
41944;DHT22;27636;52.610;13.244;2023-09-18T12:53:06;27.30;86.00
41944;DHT22;27636;52.610;13.244;2023-09-18T12:58:11;26.80;90.90
41944;DHT22;27636;52.610;13.244;2023-09-18T13:03:18;26.40;90.00
41944;DHT22;27636;52.610;13.244;2023-09-18T13:08:23;26.20;90.20
41944;DHT22;27636;52.610;13.244;2023-09-18T13:13:27;25.90;90.80
41944;DHT22;27636;52.610;13.244;2023-09-18T13:18:31;25.60;90.80
41944;DHT22;27636;52.610;13.244;2023-09-18T13:23:37;25.50;91.50
41944;DHT22;27636;52.610;13.244;2023-09-18T13:28:41;25.20;92.10
41944;DHT22;27636;52.610;13.244;2023-09-18T13:33:46;25.30;92.30
41944;DHT22;27636;52.610;13.244;2023-09-18T13:38:56;25.50;91.60
41944;DHT22;27636;52.610;13.244;2023-09-18T13:43:59;25.40;92.70
41944;DHT22;27636;52.610;13.244;2023-09-18T13:49:03;25.20;93.70
41944;DHT22;27636;52.610;13.244;2023-09-18T13:54:58;24.80;93.80
41944;DHT22;27636;52.610;13.244;2023-09-18T14:00:04;24.50;95.90
41944;DHT22;27636;52.610;13.244;2023-09-18T14:05:15;24.60;95.70
41944;DHT22;27636;52.610;13.244;2023-09-18T14:10:22;24.80;95.20
41944;DHT22;27636;52.610;13.244;2023-09-18T14:15:27;25.00;96.10
41944;DHT22;27636;52.610;13.244;2023-09-18T14:20:32;25.10;95.30
41944;DHT22;27636;52.610;13.244;2023-09-18T14:25:37;25.10;94.80
41944;DHT22;27636;52.610;13.244;2023-09-18T14:30:41;25.30;94.00
41944;DHT22;27636;52.610;13.244;2023-09-18T14:35:44;25.30;94.30
41944;DHT22;27636;52.610;13.244;2023-09-18T14:40:49;25.20;94.30
41944;DHT22;27636;52.610;13.244;2023-09-18T14:45:53;25.10;95.10
41944;DHT22;27636;52.610;13.244;2023-09-18T14:50:59;24.90;95.00
41944;DHT22;27636;52.610;13.244;2023-09-18T14:56:04;24.80;94.80
41944;DHT22;27636;52.610;13.244;2023-09-18T15:01:16;24.70;94.60
41944;DHT22;27636;52.610;13.244;2023-09-18T15:06:19;24.70;94.90
41944;DHT22;27636;52.610;13.244;2023-09-18T15:11:24;24.60;95.40
41944;DHT22;27636;52.610;13.244;2023-09-18T15:16:28;24.60;95.00
41944;DHT22;27636;52.610;13.244;2023-09-18T15:21:33;24.60;94.70
41944;DHT22;27636;52.610;13.244;2023-09-18T15:26:38;24.50;95.30
41944;DHT22;27636;52.610;13.244;2023-09-18T15:32:01;24.40;95.50
41944;DHT22;27636;52.610;13.244;2023-09-18T15:37:08;24.30;96.10
41944;DHT22;27636;52.610;13.244;2023-09-18T15:42:16;23.90;97.20
41944;DHT22;27636;52.610;13.244;2023-09-18T15:47:19;23.90;97.60
41944;DHT22;27636;52.610;13.244;2023-09-18T15:52:24;23.80;97.90
41944;DHT22;27636;52.610;13.244;2023-09-18T15:57:30;23.70;98.10
41944;DHT22;27636;52.610;13.244;2023-09-18T16:02:34;23.50;98.90
41944;DHT22;27636;52.610;13.244;2023-09-18T16:07:40;23.30;99.90
41944;DHT22;27636;52.610;13.244;2023-09-18T16:12:46;22.80;99.90
41944;DHT22;27636;52.610;13.244;2023-09-18T16:17:50;22.40;99.90
41944;DHT22;27636;52.610;13.244;2023-09-18T16:22:53;22.00;99.90
41944;DHT22;27636;52.610;13.244;2023-09-18T16:27:59;21.90;99.90
41944;DHT22;27636;52.610;13.244;2023-09-18T16:33:04;21.70;99.90
41944;DHT22;27636;52.610;13.244;2023-09-18T16:38:08;21.50;99.90
41944;DHT22;27636;52.610;13.244;2023-09-18T16:43:13;21.10;99.90
41944;DHT22;27636;52.610;13.244;2023-09-18T16:48:17;20.80;99.90
41944;DHT22;27636;52.610;13.244;2023-09-18T16:53:21;20.80;99.90
41944;DHT22;27636;52.610;13.244;2023-09-18T16:58:27;20.40;99.90
41944;DHT22;27636;52.610;13.244;2023-09-18T17:03:31;20.30;99.90
41944;DHT22;27636;52.610;13.244;2023-09-18T17:08:35;20.20;99.90
41944;DHT22;27636;52.610;13.244;2023-09-18T17:13:40;20.20;99.90
41944;DHT22;27636;52.610;13.244;2023-09-18T17:18:44;20.10;99.90
41944;DHT22;27636;52.610;13.244;2023-09-18T17:23:48;20.10;99.90
41944;DHT22;27636;52.610;13.244;2023-09-18T17:28:54;20.10;99.90
41944;DHT22;27636;52.610;13.244;2023-09-18T17:33:59;20.00;99.90
41944;DHT22;27636;52.610;13.244;2023-09-18T17:39:03;20.00;99.90
41944;DHT22;27636;52.610;13.244;2023-09-18T17:44:09;20.00;99.90
41944;DHT22;27636;52.610;13.244;2023-09-18T17:49:14;20.00;99.90
41944;DHT22;27636;52.610;13.244;2023-09-18T17:54:18;20.00;99.90
41944;DHT22;27636;52.610;13.244;2023-09-18T17:59:22;20.10;99.90
41944;DHT22;27636;52.610;13.244;2023-09-18T18:04:27;20.10;99.90
41944;DHT22;27636;52.610;13.244;2023-09-18T18:09:31;19.90;99.90
41944;DHT22;27636;52.610;13.244;2023-09-18T18:14:35;19.90;99.90
41944;DHT22;27636;52.610;13.244;2023-09-18T18:19:39;19.90;99.90
41944;DHT22;27636;52.610;13.244;2023-09-18T18:24:44;19.80;99.90
41944;DHT22;27636;52.610;13.244;2023-09-18T18:29:49;19.90;99.90
41944;DHT22;27636;52.610;13.244;2023-09-18T18:35:00;19.80;99.90
41944;DHT22;27636;52.610;13.244;2023-09-18T18:40:05;19.90;99.90
41944;DHT22;27636;52.610;13.244;2023-09-18T18:45:11;19.80;99.90
41944;DHT22;27636;52.610;13.244;2023-09-18T18:50:16;19.80;99.90
41944;DHT22;27636;52.610;13.244;2023-09-18T18:55:20;19.80;99.90
41944;DHT22;27636;52.610;13.244;2023-09-18T19:00:25;19.90;99.90
41944;DHT22;27636;52.610;13.244;2023-09-18T19:05:28;19.90;99.90
41944;DHT22;27636;52.610;13.244;2023-09-18T19:10:34;19.80;99.90
41944;DHT22;27636;52.610;13.244;2023-09-18T19:15:40;19.80;99.90
41944;DHT22;27636;52.610;13.244;2023-09-18T19:20:45;19.60;99.90
41944;DHT22;27636;52.610;13.244;2023-09-18T19:25:52;19.50;99.90
41944;DHT22;27636;52.610;13.244;2023-09-18T19:30:58;19.40;99.90
41944;DHT22;27636;52.610;13.244;2023-09-18T19:36:02;19.30;99.90
41944;DHT22;27636;52.610;13.244;2023-09-18T19:41:06;19.10;99.90
41944;DHT22;27636;52.610;13.244;2023-09-18T19:46:12;19.00;99.90
41944;DHT22;27636;52.610;13.244;2023-09-18T19:51:16;18.80;99.90
41944;DHT22;27636;52.610;13.244;2023-09-18T19:56:20;18.90;99.90
41944;DHT22;27636;52.610;13.244;2023-09-18T20:01:25;18.70;99.90
41944;DHT22;27636;52.610;13.244;2023-09-18T20:06:31;18.60;99.90
41944;DHT22;27636;52.610;13.244;2023-09-18T20:11:34;18.40;99.90
41944;DHT22;27636;52.610;13.244;2023-09-18T20:16:39;18.40;99.90
41944;DHT22;27636;52.610;13.244;2023-09-18T20:21:52;18.40;99.90
41944;DHT22;27636;52.610;13.244;2023-09-18T20:26:56;18.30;99.90
41944;DHT22;27636;52.610;13.244;2023-09-18T20:32:02;18.20;99.90
41944;DHT22;27636;52.610;13.244;2023-09-18T20:37:08;18.30;99.90
41944;DHT22;27636;52.610;13.244;2023-09-18T20:42:12;18.40;99.90
41944;DHT22;27636;52.610;13.244;2023-09-18T20:47:17;18.30;99.90
41944;DHT22;27636;52.610;13.244;2023-09-18T20:52:25;18.30;99.90
41944;DHT22;27636;52.610;13.244;2023-09-18T20:57:28;18.40;99.90
41944;DHT22;27636;52.610;13.244;2023-09-18T21:02:34;18.50;99.90
41944;DHT22;27636;52.610;13.244;2023-09-18T21:07:38;18.50;99.90
41944;DHT22;27636;52.610;13.244;2023-09-18T21:12:43;18.30;99.90
41944;DHT22;27636;52.610;13.244;2023-09-18T21:17:48;18.20;99.90
41944;DHT22;27636;52.610;13.244;2023-09-18T21:22:51;18.30;99.90
41944;DHT22;27636;52.610;13.244;2023-09-18T21:27:55;18.10;99.90
41944;DHT22;27636;52.610;13.244;2023-09-18T21:33:04;18.20;99.90
41944;DHT22;27636;52.610;13.244;2023-09-18T21:38:09;18.10;99.90
41944;DHT22;27636;52.610;13.244;2023-09-18T21:43:12;18.10;99.90
41944;DHT22;27636;52.610;13.244;2023-09-18T21:48:17;18.10;99.90
41944;DHT22;27636;52.610;13.244;2023-09-18T21:53:21;18.00;99.90
41944;DHT22;27636;52.610;13.244;2023-09-18T21:58:25;17.90;99.90
41944;DHT22;27636;52.610;13.244;2023-09-18T22:03:39;17.90;99.90
41944;DHT22;27636;52.610;13.244;2023-09-18T22:08:43;17.80;99.90
41944;DHT22;27636;52.610;13.244;2023-09-18T22:13:47;17.80;99.90
41944;DHT22;27636;52.610;13.244;2023-09-18T22:18:54;17.80;99.90
41944;DHT22;27636;52.610;13.244;2023-09-18T22:23:58;17.70;99.90
41944;DHT22;27636;52.610;13.244;2023-09-18T22:29:02;17.70;99.90
41944;DHT22;27636;52.610;13.244;2023-09-18T22:34:07;17.70;99.90
41944;DHT22;27636;52.610;13.244;2023-09-18T22:55:52;17.50;99.90
41944;DHT22;27636;52.610;13.244;2023-09-18T23:00:56;17.50;99.90
41944;DHT22;27636;52.610;13.244;2023-09-18T23:06:01;17.40;99.90
41944;DHT22;27636;52.610;13.244;2023-09-18T23:11:06;17.30;99.90
41944;DHT22;27636;52.610;13.244;2023-09-18T23:16:09;17.30;99.90
41944;DHT22;27636;52.610;13.244;2023-09-18T23:21:13;17.40;99.90
41944;DHT22;27636;52.610;13.244;2023-09-18T23:26:19;17.40;99.90
41944;DHT22;27636;52.610;13.244;2023-09-18T23:31:23;17.40;99.90
41944;DHT22;27636;52.610;13.244;2023-09-18T23:36:27;17.40;99.90
41944;DHT22;27636;52.610;13.244;2023-09-18T23:41:32;17.20;99.90
41944;DHT22;27636;52.610;13.244;2023-09-18T23:46:54;17.20;99.90
41944;DHT22;27636;52.610;13.244;2023-09-18T23:51:59;17.30;99.90
41944;DHT22;27636;52.610;13.244;2023-09-18T23:57:07;17.40;99.90
